sensor_id;sensor_type;location;lat;lon;timestamp;P1;durP1;ratioP1;P2;durP2;ratioP2
12110;SDS011;6119;52.372;8.990;2022-12-29T00:01:07;1.03;;;0.93;;
12110;SDS011;6119;52.372;8.990;2022-12-29T00:03:54;1.00;;;0.90;;
12110;SDS011;6119;52.372;8.990;2022-12-29T00:06:42;1.33;;;1.07;;
12110;SDS011;6119;52.372;8.990;2022-12-29T00:09:29;1.47;;;1.00;;
12110;SDS011;6119;52.372;8.990;2022-12-29T00:12:15;1.40;;;1.03;;
12110;SDS011;6119;52.372;8.990;2022-12-29T00:15:02;1.23;;;1.03;;
12110;SDS011;6119;52.372;8.990;2022-12-29T00:18:07;1.73;;;0.83;;
12110;SDS011;6119;52.372;8.990;2022-12-29T00:20:54;2.57;;;1.00;;
12110;SDS011;6119;52.372;8.990;2022-12-29T00:24:00;2.20;;;1.00;;
12110;SDS011;6119;52.372;8.990;2022-12-29T00:27:11;0.70;;;0.70;;
12110;SDS011;6119;52.372;8.990;2022-12-29T00:30:16;1.00;;;0.90;;
12110;SDS011;6119;52.372;8.990;2022-12-29T00:33:26;0.80;;;0.80;;
12110;SDS011;6119;52.372;8.990;2022-12-29T00:36:32;0.77;;;0.77;;
12110;SDS011;6119;52.372;8.990;2022-12-29T00:39:23;1.43;;;0.97;;
12110;SDS011;6119;52.372;8.990;2022-12-29T00:42:27;1.07;;;0.93;;
12110;SDS011;6119;52.372;8.990;2022-12-29T00:45:31;0.90;;;0.90;;
12110;SDS011;6119;52.372;8.990;2022-12-29T00:48:17;1.30;;;0.97;;
12110;SDS011;6119;52.372;8.990;2022-12-29T00:51:24;1.30;;;1.00;;
12110;SDS011;6119;52.372;8.990;2022-12-29T00:54:09;0.83;;;0.83;;
12110;SDS011;6119;52.372;8.990;2022-12-29T00:56:57;1.10;;;1.00;;
12110;SDS011;6119;52.372;8.990;2022-12-29T00:59:44;1.00;;;0.90;;
12110;SDS011;6119;52.372;8.990;2022-12-29T01:02:30;0.83;;;0.83;;
12110;SDS011;6119;52.372;8.990;2022-12-29T01:05:17;0.77;;;0.77;;
12110;SDS011;6119;52.372;8.990;2022-12-29T01:08:04;0.97;;;0.90;;
12110;SDS011;6119;52.372;8.990;2022-12-29T01:10:57;1.00;;;0.90;;
12110;SDS011;6119;52.372;8.990;2022-12-29T01:13:44;2.30;;;0.80;;
12110;SDS011;6119;52.372;8.990;2022-12-29T01:16:31;1.00;;;0.77;;
12110;SDS011;6119;52.372;8.990;2022-12-29T01:19:17;1.23;;;0.83;;
12110;SDS011;6119;52.372;8.990;2022-12-29T01:22:05;0.90;;;0.90;;
12110;SDS011;6119;52.372;8.990;2022-12-29T01:24:51;0.77;;;0.77;;
12110;SDS011;6119;52.372;8.990;2022-12-29T01:27:38;1.10;;;1.00;;
12110;SDS011;6119;52.372;8.990;2022-12-29T01:30:25;1.40;;;1.03;;
12110;SDS011;6119;52.372;8.990;2022-12-29T01:33:12;0.77;;;0.77;;
12110;SDS011;6119;52.372;8.990;2022-12-29T01:35:59;1.10;;;1.00;;
12110;SDS011;6119;52.372;8.990;2022-12-29T01:38:45;1.47;;;0.80;;
12110;SDS011;6119;52.372;8.990;2022-12-29T01:41:32;0.70;;;0.70;;
12110;SDS011;6119;52.372;8.990;2022-12-29T01:47:35;0.60;;;0.60;;
12110;SDS011;6119;52.372;8.990;2022-12-29T01:50:26;1.43;;;0.90;;
12110;SDS011;6119;52.372;8.990;2022-12-29T01:53:18;1.10;;;0.93;;
12110;SDS011;6119;52.372;8.990;2022-12-29T01:56:09;0.80;;;0.80;;
12110;SDS011;6119;52.372;8.990;2022-12-29T01:59:01;0.63;;;0.63;;
12110;SDS011;6119;52.372;8.990;2022-12-29T02:01:51;0.73;;;0.73;;
12110;SDS011;6119;52.372;8.990;2022-12-29T02:04:39;0.77;;;0.70;;
12110;SDS011;6119;52.372;8.990;2022-12-29T02:07:29;1.67;;;1.17;;
12110;SDS011;6119;52.372;8.990;2022-12-29T02:10:17;0.77;;;0.60;;
12110;SDS011;6119;52.372;8.990;2022-12-29T02:13:05;0.60;;;0.60;;
12110;SDS011;6119;52.372;8.990;2022-12-29T02:15:53;0.73;;;0.70;;
12110;SDS011;6119;52.372;8.990;2022-12-29T02:18:50;0.63;;;0.63;;
12110;SDS011;6119;52.372;8.990;2022-12-29T02:21:50;0.67;;;0.67;;
12110;SDS011;6119;52.372;8.990;2022-12-29T02:24:50;0.70;;;0.70;;
12110;SDS011;6119;52.372;8.990;2022-12-29T02:28:02;0.37;;;0.37;;
12110;SDS011;6119;52.372;8.990;2022-12-29T02:31:07;0.50;;;0.50;;
12110;SDS011;6119;52.372;8.990;2022-12-29T02:34:03;1.07;;;0.60;;
12110;SDS011;6119;52.372;8.990;2022-12-29T02:36:58;0.60;;;0.60;;
12110;SDS011;6119;52.372;8.990;2022-12-29T02:39:50;0.40;;;0.40;;
12110;SDS011;6119;52.372;8.990;2022-12-29T02:42:44;0.40;;;0.40;;
12110;SDS011;6119;52.372;8.990;2022-12-29T02:45:35;0.70;;;0.53;;
12110;SDS011;6119;52.372;8.990;2022-12-29T02:48:27;0.73;;;0.53;;
12110;SDS011;6119;52.372;8.990;2022-12-29T02:51:19;0.50;;;0.50;;
12110;SDS011;6119;52.372;8.990;2022-12-29T02:54:12;0.47;;;0.47;;
12110;SDS011;6119;52.372;8.990;2022-12-29T02:57:27;0.37;;;0.37;;
12110;SDS011;6119;52.372;8.990;2022-12-29T03:00:16;0.40;;;0.40;;
12110;SDS011;6119;52.372;8.990;2022-12-29T03:03:07;0.50;;;0.50;;
12110;SDS011;6119;52.372;8.990;2022-12-29T03:09:19;0.43;;;0.43;;
12110;SDS011;6119;52.372;8.990;2022-12-29T03:12:13;0.63;;;0.63;;
12110;SDS011;6119;52.372;8.990;2022-12-29T03:15:08;0.40;;;0.40;;
12110;SDS011;6119;52.372;8.990;2022-12-29T03:18:19;0.50;;;0.47;;
12110;SDS011;6119;52.372;8.990;2022-12-29T03:21:10;0.50;;;0.50;;
12110;SDS011;6119;52.372;8.990;2022-12-29T03:24:03;1.13;;;0.50;;
12110;SDS011;6119;52.372;8.990;2022-12-29T03:26:51;0.40;;;0.40;;
12110;SDS011;6119;52.372;8.990;2022-12-29T03:29:40;0.50;;;0.50;;
12110;SDS011;6119;52.372;8.990;2022-12-29T03:32:31;0.47;;;0.47;;
12110;SDS011;6119;52.372;8.990;2022-12-29T03:35:21;0.40;;;0.40;;
12110;SDS011;6119;52.372;8.990;2022-12-29T03:38:11;0.37;;;0.37;;
12110;SDS011;6119;52.372;8.990;2022-12-29T03:41:11;1.60;;;0.43;;
12110;SDS011;6119;52.372;8.990;2022-12-29T03:44:00;1.00;;;1.00;;
12110;SDS011;6119;52.372;8.990;2022-12-29T03:46:47;0.50;;;0.50;;
12110;SDS011;6119;52.372;8.990;2022-12-29T03:49:33;0.47;;;0.47;;
12110;SDS011;6119;52.372;8.990;2022-12-29T03:52:20;0.50;;;0.50;;
12110;SDS011;6119;52.372;8.990;2022-12-29T03:55:06;0.30;;;0.30;;
12110;SDS011;6119;52.372;8.990;2022-12-29T03:57:55;0.53;;;0.53;;
12110;SDS011;6119;52.372;8.990;2022-12-29T04:00:41;0.70;;;0.30;;
12110;SDS011;6119;52.372;8.990;2022-12-29T04:03:28;0.93;;;0.53;;
12110;SDS011;6119;52.372;8.990;2022-12-29T04:06:15;0.50;;;0.50;;
12110;SDS011;6119;52.372;8.990;2022-12-29T04:09:01;0.40;;;0.40;;
12110;SDS011;6119;52.372;8.990;2022-12-29T04:11:48;0.30;;;0.30;;
12110;SDS011;6119;52.372;8.990;2022-12-29T04:14:36;0.50;;;0.40;;
12110;SDS011;6119;52.372;8.990;2022-12-29T04:17:22;0.50;;;0.50;;
12110;SDS011;6119;52.372;8.990;2022-12-29T04:20:09;0.40;;;0.40;;
12110;SDS011;6119;52.372;8.990;2022-12-29T04:23:12;0.50;;;0.40;;
12110;SDS011;6119;52.372;8.990;2022-12-29T04:25:59;0.50;;;0.50;;
12110;SDS011;6119;52.372;8.990;2022-12-29T04:28:46;0.33;;;0.33;;
12110;SDS011;6119;52.372;8.990;2022-12-29T04:31:34;0.33;;;0.30;;
12110;SDS011;6119;52.372;8.990;2022-12-29T04:34:20;0.40;;;0.40;;
12110;SDS011;6119;52.372;8.990;2022-12-29T04:37:07;2.07;;;0.63;;
12110;SDS011;6119;52.372;8.990;2022-12-29T04:39:53;2.47;;;0.70;;
12110;SDS011;6119;52.372;8.990;2022-12-29T04:42:40;0.95;;;0.50;;
12110;SDS011;6119;52.372;8.990;2022-12-29T04:45:26;0.47;;;0.40;;
12110;SDS011;6119;52.372;8.990;2022-12-29T04:48:14;0.50;;;0.40;;
12110;SDS011;6119;52.372;8.990;2022-12-29T04:51:02;0.43;;;0.43;;
12110;SDS011;6119;52.372;8.990;2022-12-29T04:53:48;0.20;;;0.20;;
12110;SDS011;6119;52.372;8.990;2022-12-29T04:56:34;0.60;;;0.40;;
12110;SDS011;6119;52.372;8.990;2022-12-29T04:59:21;1.27;;;1.13;;
12110;SDS011;6119;52.372;8.990;2022-12-29T05:02:08;1.27;;;1.00;;
12110;SDS011;6119;52.372;8.990;2022-12-29T05:04:56;3.43;;;1.53;;
12110;SDS011;6119;52.372;8.990;2022-12-29T05:07:42;2.63;;;0.50;;
12110;SDS011;6119;52.372;8.990;2022-12-29T05:10:29;4.97;;;2.75;;
12110;SDS011;6119;52.372;8.990;2022-12-29T05:13:16;0.90;;;0.90;;
12110;SDS011;6119;52.372;8.990;2022-12-29T05:16:02;0.43;;;0.43;;
12110;SDS011;6119;52.372;8.990;2022-12-29T05:18:49;1.00;;;1.00;;
12110;SDS011;6119;52.372;8.990;2022-12-29T05:21:37;1.43;;;0.37;;
12110;SDS011;6119;52.372;8.990;2022-12-29T05:24:24;0.60;;;0.50;;
12110;SDS011;6119;52.372;8.990;2022-12-29T05:27:10;0.63;;;0.60;;
12110;SDS011;6119;52.372;8.990;2022-12-29T05:29:57;3.37;;;0.53;;
12110;SDS011;6119;52.372;8.990;2022-12-29T05:32:43;1.10;;;1.10;;
12110;SDS011;6119;52.372;8.990;2022-12-29T05:35:30;0.50;;;0.50;;
12110;SDS011;6119;52.372;8.990;2022-12-29T05:38:19;0.67;;;0.53;;
12110;SDS011;6119;52.372;8.990;2022-12-29T05:41:06;0.63;;;0.30;;
12110;SDS011;6119;52.372;8.990;2022-12-29T05:43:52;0.40;;;0.40;;
12110;SDS011;6119;52.372;8.990;2022-12-29T05:46:38;1.43;;;0.50;;
12110;SDS011;6119;52.372;8.990;2022-12-29T05:49:25;0.53;;;0.53;;
12110;SDS011;6119;52.372;8.990;2022-12-29T05:52:12;1.50;;;0.50;;
12110;SDS011;6119;52.372;8.990;2022-12-29T05:55:00;1.50;;;0.50;;
12110;SDS011;6119;52.372;8.990;2022-12-29T05:57:46;4.13;;;0.50;;
12110;SDS011;6119;52.372;8.990;2022-12-29T06:00:32;1.57;;;0.60;;
12110;SDS011;6119;52.372;8.990;2022-12-29T06:03:18;2.83;;;0.50;;
12110;SDS011;6119;52.372;8.990;2022-12-29T06:06:06;0.70;;;0.50;;
12110;SDS011;6119;52.372;8.990;2022-12-29T06:08:52;0.87;;;0.67;;
12110;SDS011;6119;52.372;8.990;2022-12-29T06:11:40;1.33;;;0.70;;
12110;SDS011;6119;52.372;8.990;2022-12-29T06:14:27;0.50;;;0.50;;
12110;SDS011;6119;52.372;8.990;2022-12-29T06:17:14;0.47;;;0.47;;
12110;SDS011;6119;52.372;8.990;2022-12-29T06:20:01;1.90;;;0.70;;
12110;SDS011;6119;52.372;8.990;2022-12-29T06:22:47;1.27;;;0.60;;
12110;SDS011;6119;52.372;8.990;2022-12-29T06:25:34;1.00;;;0.70;;
12110;SDS011;6119;52.372;8.990;2022-12-29T06:28:22;1.80;;;0.50;;
12110;SDS011;6119;52.372;8.990;2022-12-29T06:31:09;1.77;;;0.50;;
12110;SDS011;6119;52.372;8.990;2022-12-29T06:33:56;1.13;;;0.47;;
12110;SDS011;6119;52.372;8.990;2022-12-29T06:36:50;0.20;;;0.20;;
12110;SDS011;6119;52.372;8.990;2022-12-29T06:39:36;0.20;;;0.20;;
12110;SDS011;6119;52.372;8.990;2022-12-29T06:42:23;0.30;;;0.20;;
12110;SDS011;6119;52.372;8.990;2022-12-29T06:45:11;1.85;;;1.25;;
12110;SDS011;6119;52.372;8.990;2022-12-29T06:47:58;1.30;;;1.20;;
12110;SDS011;6119;52.372;8.990;2022-12-29T06:50:44;1.17;;;0.57;;
12110;SDS011;6119;52.372;8.990;2022-12-29T06:53:31;1.50;;;0.70;;
12110;SDS011;6119;52.372;8.990;2022-12-29T06:56:17;0.60;;;0.60;;
12110;SDS011;6119;52.372;8.990;2022-12-29T06:59:03;1.37;;;0.70;;
12110;SDS011;6119;52.372;8.990;2022-12-29T07:01:52;0.70;;;0.70;;
12110;SDS011;6119;52.372;8.990;2022-12-29T07:04:39;2.97;;;0.57;;
12110;SDS011;6119;52.372;8.990;2022-12-29T07:07:26;0.83;;;0.47;;
12110;SDS011;6119;52.372;8.990;2022-12-29T07:10:13;1.20;;;0.60;;
12110;SDS011;6119;52.372;8.990;2022-12-29T07:12:59;0.63;;;0.47;;
12110;SDS011;6119;52.372;8.990;2022-12-29T07:15:45;0.63;;;0.40;;
12110;SDS011;6119;52.372;8.990;2022-12-29T07:18:34;0.60;;;0.60;;
12110;SDS011;6119;52.372;8.990;2022-12-29T07:21:21;1.67;;;0.43;;
12110;SDS011;6119;52.372;8.990;2022-12-29T07:24:07;0.53;;;0.43;;
12110;SDS011;6119;52.372;8.990;2022-12-29T07:26:55;1.50;;;0.40;;
12110;SDS011;6119;52.372;8.990;2022-12-29T07:29:41;0.40;;;0.40;;
12110;SDS011;6119;52.372;8.990;2022-12-29T07:32:28;0.40;;;0.40;;
12110;SDS011;6119;52.372;8.990;2022-12-29T07:35:19;0.47;;;0.47;;
12110;SDS011;6119;52.372;8.990;2022-12-29T07:38:05;0.63;;;0.63;;
12110;SDS011;6119;52.372;8.990;2022-12-29T07:40:55;0.47;;;0.47;;
12110;SDS011;6119;52.372;8.990;2022-12-29T07:43:42;1.20;;;0.97;;
12110;SDS011;6119;52.372;8.990;2022-12-29T07:46:32;2.23;;;1.10;;
12110;SDS011;6119;52.372;8.990;2022-12-29T07:49:38;0.80;;;0.50;;
12110;SDS011;6119;52.372;8.990;2022-12-29T07:52:26;0.50;;;0.50;;
12110;SDS011;6119;52.372;8.990;2022-12-29T07:55:13;0.53;;;0.53;;
12110;SDS011;6119;52.372;8.990;2022-12-29T07:57:59;2.57;;;0.70;;
12110;SDS011;6119;52.372;8.990;2022-12-29T08:00:46;1.90;;;0.83;;
12110;SDS011;6119;52.372;8.990;2022-12-29T08:03:32;1.60;;;0.93;;
12110;SDS011;6119;52.372;8.990;2022-12-29T08:06:19;3.67;;;0.80;;
12110;SDS011;6119;52.372;8.990;2022-12-29T08:09:09;5.00;;;1.00;;
12110;SDS011;6119;52.372;8.990;2022-12-29T08:12:08;1.00;;;0.73;;
12110;SDS011;6119;52.372;8.990;2022-12-29T08:14:55;2.40;;;1.10;;
12110;SDS011;6119;52.372;8.990;2022-12-29T08:17:42;3.10;;;1.00;;
12110;SDS011;6119;52.372;8.990;2022-12-29T08:20:28;1.47;;;0.97;;
12110;SDS011;6119;52.372;8.990;2022-12-29T08:23:15;1.33;;;0.70;;
12110;SDS011;6119;52.372;8.990;2022-12-29T08:26:03;1.50;;;0.87;;
12110;SDS011;6119;52.372;8.990;2022-12-29T08:28:51;5.53;;;0.90;;
12110;SDS011;6119;52.372;8.990;2022-12-29T08:31:39;3.80;;;1.03;;
12110;SDS011;6119;52.372;8.990;2022-12-29T08:34:26;2.33;;;0.90;;
12110;SDS011;6119;52.372;8.990;2022-12-29T08:37:12;3.10;;;0.90;;
12110;SDS011;6119;52.372;8.990;2022-12-29T08:39:59;2.57;;;1.00;;
12110;SDS011;6119;52.372;8.990;2022-12-29T08:42:50;4.47;;;0.80;;
12110;SDS011;6119;52.372;8.990;2022-12-29T08:45:36;2.47;;;0.90;;
12110;SDS011;6119;52.372;8.990;2022-12-29T08:48:23;0.90;;;0.73;;
12110;SDS011;6119;52.372;8.990;2022-12-29T08:51:10;1.57;;;1.00;;
12110;SDS011;6119;52.372;8.990;2022-12-29T08:53:57;3.57;;;0.93;;
12110;SDS011;6119;52.372;8.990;2022-12-29T08:56:44;0.83;;;0.57;;
12110;SDS011;6119;52.372;8.990;2022-12-29T08:59:32;1.07;;;0.70;;
12110;SDS011;6119;52.372;8.990;2022-12-29T09:02:18;2.03;;;0.80;;
12110;SDS011;6119;52.372;8.990;2022-12-29T09:05:08;3.30;;;0.73;;
12110;SDS011;6119;52.372;8.990;2022-12-29T09:07:55;4.97;;;1.20;;
12110;SDS011;6119;52.372;8.990;2022-12-29T09:10:41;4.40;;;0.93;;
12110;SDS011;6119;52.372;8.990;2022-12-29T09:13:27;2.80;;;0.97;;
12110;SDS011;6119;52.372;8.990;2022-12-29T09:16:16;5.30;;;0.93;;
12110;SDS011;6119;52.372;8.990;2022-12-29T09:19:03;3.00;;;0.70;;
12110;SDS011;6119;52.372;8.990;2022-12-29T09:21:50;2.67;;;1.17;;
12110;SDS011;6119;52.372;8.990;2022-12-29T09:24:36;3.37;;;0.83;;
12110;SDS011;6119;52.372;8.990;2022-12-29T09:27:23;1.73;;;0.87;;
12110;SDS011;6119;52.372;8.990;2022-12-29T09:30:11;3.90;;;0.97;;
12110;SDS011;6119;52.372;8.990;2022-12-29T09:33:00;2.90;;;0.70;;
12110;SDS011;6119;52.372;8.990;2022-12-29T09:35:49;5.30;;;0.77;;
12110;SDS011;6119;52.372;8.990;2022-12-29T09:38:37;3.80;;;1.20;;
12110;SDS011;6119;52.372;8.990;2022-12-29T09:41:24;3.13;;;1.10;;
12110;SDS011;6119;52.372;8.990;2022-12-29T09:44:18;3.83;;;0.70;;
12110;SDS011;6119;52.372;8.990;2022-12-29T09:47:09;4.00;;;1.00;;
12110;SDS011;6119;52.372;8.990;2022-12-29T09:50:01;1.63;;;0.80;;
12110;SDS011;6119;52.372;8.990;2022-12-29T09:52:52;1.97;;;0.60;;
12110;SDS011;6119;52.372;8.990;2022-12-29T09:55:44;2.20;;;0.87;;
12110;SDS011;6119;52.372;8.990;2022-12-29T09:58:35;2.27;;;0.90;;
12110;SDS011;6119;52.372;8.990;2022-12-29T10:01:28;3.00;;;0.80;;
12110;SDS011;6119;52.372;8.990;2022-12-29T10:04:18;1.77;;;0.83;;
12110;SDS011;6119;52.372;8.990;2022-12-29T10:07:08;1.10;;;0.67;;
12110;SDS011;6119;52.372;8.990;2022-12-29T10:10:18;2.13;;;0.80;;
12110;SDS011;6119;52.372;8.990;2022-12-29T10:13:18;1.87;;;1.00;;
12110;SDS011;6119;52.372;8.990;2022-12-29T10:16:20;3.57;;;0.90;;
12110;SDS011;6119;52.372;8.990;2022-12-29T10:19:16;4.07;;;1.20;;
12110;SDS011;6119;52.372;8.990;2022-12-29T10:22:21;3.07;;;1.20;;
12110;SDS011;6119;52.372;8.990;2022-12-29T10:25:17;3.80;;;1.10;;
12110;SDS011;6119;52.372;8.990;2022-12-29T10:28:05;3.53;;;1.00;;
12110;SDS011;6119;52.372;8.990;2022-12-29T10:31:01;2.47;;;1.00;;
12110;SDS011;6119;52.372;8.990;2022-12-29T10:33:53;2.33;;;0.80;;
12110;SDS011;6119;52.372;8.990;2022-12-29T10:36:44;2.80;;;0.80;;
12110;SDS011;6119;52.372;8.990;2022-12-29T10:39:37;2.13;;;1.07;;
12110;SDS011;6119;52.372;8.990;2022-12-29T10:42:33;2.77;;;1.23;;
12110;SDS011;6119;52.372;8.990;2022-12-29T10:45:24;1.73;;;0.67;;
12110;SDS011;6119;52.372;8.990;2022-12-29T10:48:15;2.47;;;1.00;;
12110;SDS011;6119;52.372;8.990;2022-12-29T10:51:20;1.33;;;0.77;;
12110;SDS011;6119;52.372;8.990;2022-12-29T10:54:10;2.70;;;0.80;;
12110;SDS011;6119;52.372;8.990;2022-12-29T10:57:06;5.70;;;1.63;;
12110;SDS011;6119;52.372;8.990;2022-12-29T10:59:57;2.13;;;0.77;;
12110;SDS011;6119;52.372;8.990;2022-12-29T11:03:00;3.80;;;0.97;;
12110;SDS011;6119;52.372;8.990;2022-12-29T11:06:04;2.53;;;0.87;;
12110;SDS011;6119;52.372;8.990;2022-12-29T11:08:55;2.63;;;1.07;;
12110;SDS011;6119;52.372;8.990;2022-12-29T11:11:44;4.00;;;1.10;;
12110;SDS011;6119;52.372;8.990;2022-12-29T11:14:33;1.77;;;1.43;;
12110;SDS011;6119;52.372;8.990;2022-12-29T11:17:20;2.87;;;1.00;;
12110;SDS011;6119;52.372;8.990;2022-12-29T11:20:19;3.50;;;1.33;;
12110;SDS011;6119;52.372;8.990;2022-12-29T11:23:28;3.00;;;1.10;;
12110;SDS011;6119;52.372;8.990;2022-12-29T11:26:17;1.87;;;1.33;;
12110;SDS011;6119;52.372;8.990;2022-12-29T11:29:26;4.10;;;1.43;;
12110;SDS011;6119;52.372;8.990;2022-12-29T11:32:18;2.90;;;1.20;;
12110;SDS011;6119;52.372;8.990;2022-12-29T11:35:17;1.90;;;1.00;;
12110;SDS011;6119;52.372;8.990;2022-12-29T11:38:18;4.47;;;1.27;;
12110;SDS011;6119;52.372;8.990;2022-12-29T11:41:10;1.77;;;1.10;;
12110;SDS011;6119;52.372;8.990;2022-12-29T11:43:59;4.00;;;1.10;;
12110;SDS011;6119;52.372;8.990;2022-12-29T11:46:48;2.70;;;1.20;;
12110;SDS011;6119;52.372;8.990;2022-12-29T11:49:38;3.40;;;1.10;;
12110;SDS011;6119;52.372;8.990;2022-12-29T11:52:25;4.20;;;1.33;;
12110;SDS011;6119;52.372;8.990;2022-12-29T11:55:17;3.70;;;1.23;;
12110;SDS011;6119;52.372;8.990;2022-12-29T11:58:05;2.40;;;1.20;;
12110;SDS011;6119;52.372;8.990;2022-12-29T12:00:52;3.27;;;1.60;;
12110;SDS011;6119;52.372;8.990;2022-12-29T12:03:40;3.03;;;1.37;;
12110;SDS011;6119;52.372;8.990;2022-12-29T12:06:33;2.80;;;1.00;;
12110;SDS011;6119;52.372;8.990;2022-12-29T12:09:25;2.93;;;1.10;;
12110;SDS011;6119;52.372;8.990;2022-12-29T12:12:20;2.77;;;1.17;;
12110;SDS011;6119;52.372;8.990;2022-12-29T12:15:12;2.70;;;1.10;;
12110;SDS011;6119;52.372;8.990;2022-12-29T12:18:05;1.97;;;1.10;;
12110;SDS011;6119;52.372;8.990;2022-12-29T12:20:57;4.30;;;1.33;;
12110;SDS011;6119;52.372;8.990;2022-12-29T12:23:56;4.13;;;1.30;;
12110;SDS011;6119;52.372;8.990;2022-12-29T12:26:54;2.80;;;1.17;;
12110;SDS011;6119;52.372;8.990;2022-12-29T12:29:46;2.67;;;0.93;;
12110;SDS011;6119;52.372;8.990;2022-12-29T12:32:39;4.47;;;1.30;;
12110;SDS011;6119;52.372;8.990;2022-12-29T12:35:32;3.67;;;1.20;;
12110;SDS011;6119;52.372;8.990;2022-12-29T12:38:29;1.93;;;1.07;;
12110;SDS011;6119;52.372;8.990;2022-12-29T12:41:28;6.13;;;1.10;;
12110;SDS011;6119;52.372;8.990;2022-12-29T12:44:25;3.77;;;1.10;;
12110;SDS011;6119;52.372;8.990;2022-12-29T12:47:28;6.27;;;1.23;;
12110;SDS011;6119;52.372;8.990;2022-12-29T12:50:35;6.73;;;1.43;;
12110;SDS011;6119;52.372;8.990;2022-12-29T12:53:39;3.30;;;1.10;;
12110;SDS011;6119;52.372;8.990;2022-12-29T12:56:43;5.00;;;1.20;;
12110;SDS011;6119;52.372;8.990;2022-12-29T12:59:49;3.47;;;1.57;;
12110;SDS011;6119;52.372;8.990;2022-12-29T13:02:44;7.03;;;1.47;;
12110;SDS011;6119;52.372;8.990;2022-12-29T13:05:46;3.47;;;1.40;;
12110;SDS011;6119;52.372;8.990;2022-12-29T13:08:58;2.60;;;1.13;;
12110;SDS011;6119;52.372;8.990;2022-12-29T13:11:59;3.07;;;1.20;;
12110;SDS011;6119;52.372;8.990;2022-12-29T13:14:56;3.33;;;1.37;;
12110;SDS011;6119;52.372;8.990;2022-12-29T13:17:51;5.53;;;1.87;;
12110;SDS011;6119;52.372;8.990;2022-12-29T13:20:43;5.43;;;2.47;;
12110;SDS011;6119;52.372;8.990;2022-12-29T13:23:37;6.37;;;2.07;;
12110;SDS011;6119;52.372;8.990;2022-12-29T13:26:28;4.50;;;1.73;;
12110;SDS011;6119;52.372;8.990;2022-12-29T13:29:23;3.70;;;1.47;;
12110;SDS011;6119;52.372;8.990;2022-12-29T13:32:21;2.63;;;1.17;;
12110;SDS011;6119;52.372;8.990;2022-12-29T13:35:27;2.47;;;0.97;;
12110;SDS011;6119;52.372;8.990;2022-12-29T13:38:21;3.30;;;1.30;;
12110;SDS011;6119;52.372;8.990;2022-12-29T13:41:11;4.97;;;1.10;;
12110;SDS011;6119;52.372;8.990;2022-12-29T13:44:01;3.20;;;1.30;;
12110;SDS011;6119;52.372;8.990;2022-12-29T13:46:52;3.30;;;1.10;;
12110;SDS011;6119;52.372;8.990;2022-12-29T13:49:42;3.73;;;1.10;;
12110;SDS011;6119;52.372;8.990;2022-12-29T13:52:32;2.63;;;1.30;;
12110;SDS011;6119;52.372;8.990;2022-12-29T13:55:25;5.43;;;1.20;;
12110;SDS011;6119;52.372;8.990;2022-12-29T13:58:17;2.83;;;0.83;;
12110;SDS011;6119;52.372;8.990;2022-12-29T14:01:10;2.30;;;1.13;;
12110;SDS011;6119;52.372;8.990;2022-12-29T14:04:08;3.27;;;0.90;;
12110;SDS011;6119;52.372;8.990;2022-12-29T14:06:59;3.90;;;1.00;;
12110;SDS011;6119;52.372;8.990;2022-12-29T14:09:47;3.77;;;1.07;;
12110;SDS011;6119;52.372;8.990;2022-12-29T14:12:36;4.23;;;1.60;;
12110;SDS011;6119;52.372;8.990;2022-12-29T14:15:26;2.03;;;1.03;;
12110;SDS011;6119;52.372;8.990;2022-12-29T14:18:14;3.33;;;0.90;;
12110;SDS011;6119;52.372;8.990;2022-12-29T14:21:04;5.63;;;1.30;;
12110;SDS011;6119;52.372;8.990;2022-12-29T14:24:02;9.20;;;1.20;;
12110;SDS011;6119;52.372;8.990;2022-12-29T14:27:44;4.77;;;1.20;;
12110;SDS011;6119;52.372;8.990;2022-12-29T14:34:14;5.80;;;1.40;;
12110;SDS011;6119;52.372;8.990;2022-12-29T14:37:23;2.37;;;0.97;;
12110;SDS011;6119;52.372;8.990;2022-12-29T14:40:14;2.27;;;1.00;;
12110;SDS011;6119;52.372;8.990;2022-12-29T14:43:06;5.47;;;1.67;;
12110;SDS011;6119;52.372;8.990;2022-12-29T14:45:59;3.13;;;1.27;;
12110;SDS011;6119;52.372;8.990;2022-12-29T14:48:46;6.40;;;1.40;;
12110;SDS011;6119;52.372;8.990;2022-12-29T14:51:34;1.60;;;0.80;;
12110;SDS011;6119;52.372;8.990;2022-12-29T14:57:44;1.30;;;0.80;;
12110;SDS011;6119;52.372;8.990;2022-12-29T15:00:34;6.80;;;1.93;;
12110;SDS011;6119;52.372;8.990;2022-12-29T15:03:23;9.87;;;4.50;;
12110;SDS011;6119;52.372;8.990;2022-12-29T15:06:11;4.30;;;1.10;;
12110;SDS011;6119;52.372;8.990;2022-12-29T15:09:04;2.33;;;1.00;;
12110;SDS011;6119;52.372;8.990;2022-12-29T15:12:01;5.77;;;1.40;;
12110;SDS011;6119;52.372;8.990;2022-12-29T15:14:58;2.87;;;1.30;;
12110;SDS011;6119;52.372;8.990;2022-12-29T15:17:46;1.70;;;1.37;;
12110;SDS011;6119;52.372;8.990;2022-12-29T15:20:33;3.70;;;1.10;;
12110;SDS011;6119;52.372;8.990;2022-12-29T15:23:20;4.33;;;1.30;;
12110;SDS011;6119;52.372;8.990;2022-12-29T15:26:07;4.70;;;1.60;;
12110;SDS011;6119;52.372;8.990;2022-12-29T15:28:56;2.40;;;1.20;;
12110;SDS011;6119;52.372;8.990;2022-12-29T15:31:45;5.90;;;1.57;;
12110;SDS011;6119;52.372;8.990;2022-12-29T15:34:33;1.93;;;1.00;;
12110;SDS011;6119;52.372;8.990;2022-12-29T15:37:21;3.00;;;1.43;;
12110;SDS011;6119;52.372;8.990;2022-12-29T15:40:19;2.07;;;1.10;;
12110;SDS011;6119;52.372;8.990;2022-12-29T15:43:24;3.00;;;0.97;;
12110;SDS011;6119;52.372;8.990;2022-12-29T15:46:33;9.67;;;1.47;;
12110;SDS011;6119;52.372;8.990;2022-12-29T15:49:19;3.87;;;1.77;;
12110;SDS011;6119;52.372;8.990;2022-12-29T15:52:17;4.10;;;1.57;;
12110;SDS011;6119;52.372;8.990;2022-12-29T15:55:05;4.40;;;1.27;;
12110;SDS011;6119;52.372;8.990;2022-12-29T15:58:05;5.17;;;1.70;;
12110;SDS011;6119;52.372;8.990;2022-12-29T16:01:16;5.60;;;1.30;;
12110;SDS011;6119;52.372;8.990;2022-12-29T16:04:06;5.40;;;1.40;;
12110;SDS011;6119;52.372;8.990;2022-12-29T16:06:54;4.07;;;1.27;;
12110;SDS011;6119;52.372;8.990;2022-12-29T16:09:43;4.43;;;0.90;;
12110;SDS011;6119;52.372;8.990;2022-12-29T16:12:31;4.47;;;1.30;;
12110;SDS011;6119;52.372;8.990;2022-12-29T16:15:19;3.73;;;1.30;;
12110;SDS011;6119;52.372;8.990;2022-12-29T16:18:11;8.83;;;1.60;;
12110;SDS011;6119;52.372;8.990;2022-12-29T16:21:15;3.57;;;1.40;;
12110;SDS011;6119;52.372;8.990;2022-12-29T16:24:06;6.17;;;1.73;;
12110;SDS011;6119;52.372;8.990;2022-12-29T16:26:59;3.23;;;1.63;;
12110;SDS011;6119;52.372;8.990;2022-12-29T16:29:53;4.83;;;1.77;;
12110;SDS011;6119;52.372;8.990;2022-12-29T16:32:45;4.67;;;1.40;;
12110;SDS011;6119;52.372;8.990;2022-12-29T16:35:38;6.53;;;1.43;;
12110;SDS011;6119;52.372;8.990;2022-12-29T16:38:33;6.23;;;2.07;;
12110;SDS011;6119;52.372;8.990;2022-12-29T16:41:28;5.60;;;1.90;;
12110;SDS011;6119;52.372;8.990;2022-12-29T16:44:19;8.73;;;3.70;;
12110;SDS011;6119;52.372;8.990;2022-12-29T16:47:18;5.70;;;1.70;;
12110;SDS011;6119;52.372;8.990;2022-12-29T16:50:10;2.57;;;1.43;;
12110;SDS011;6119;52.372;8.990;2022-12-29T16:53:17;6.13;;;1.67;;
12110;SDS011;6119;52.372;8.990;2022-12-29T16:56:12;4.40;;;1.30;;
12110;SDS011;6119;52.372;8.990;2022-12-29T16:59:01;4.77;;;1.70;;
12110;SDS011;6119;52.372;8.990;2022-12-29T17:01:50;4.97;;;1.73;;
12110;SDS011;6119;52.372;8.990;2022-12-29T17:04:37;5.83;;;3.30;;
12110;SDS011;6119;52.372;8.990;2022-12-29T17:07:25;5.60;;;2.00;;
12110;SDS011;6119;52.372;8.990;2022-12-29T17:10:14;2.47;;;1.73;;
12110;SDS011;6119;52.372;8.990;2022-12-29T17:13:02;4.10;;;1.50;;
12110;SDS011;6119;52.372;8.990;2022-12-29T17:15:48;5.60;;;1.70;;
12110;SDS011;6119;52.372;8.990;2022-12-29T17:18:35;5.70;;;1.60;;
12110;SDS011;6119;52.372;8.990;2022-12-29T17:21:22;7.70;;;1.97;;
12110;SDS011;6119;52.372;8.990;2022-12-29T17:24:09;7.20;;;1.50;;
12110;SDS011;6119;52.372;8.990;2022-12-29T17:27:01;8.40;;;1.53;;
12110;SDS011;6119;52.372;8.990;2022-12-29T17:29:50;2.87;;;1.80;;
12110;SDS011;6119;52.372;8.990;2022-12-29T17:32:40;6.67;;;1.73;;
12110;SDS011;6119;52.372;8.990;2022-12-29T17:35:29;4.50;;;1.43;;
12110;SDS011;6119;52.372;8.990;2022-12-29T17:38:16;5.97;;;2.57;;
12110;SDS011;6119;52.372;8.990;2022-12-29T17:41:07;4.20;;;2.07;;